Time;durP1;ratioP1;P1;durP2;ratioP2;P2;SDS_P1;SDS_P2;PMS_P1;PMS_P2;Temp;Humidity;BMP_temperature;BMP_pressure;BME280_temperature;BME280_humidity;BME280_pressure;Samples;Min_cycle;Max_cycle;Signal;HPM_P1;HPM_P2
2022/05/03 00:01:20;;;;;;;2.57;1.70;;;12.30;98.00;;;;;;5017363;28;20625;-90
2022/05/03 00:03:56;;;;;;;3.10;2.17;;;12.20;98.00;;;;;;5018054;28;20492;-90
2022/05/03 00:06:32;;;;;;;2.80;1.93;;;12.10;98.00;;;;;;5017177;28;20477;-90
2022/05/03 00:09:05;;;;;;;2.17;1.53;;;12.10;98.00;;;;;;5015682;28;20486;-91
2022/05/03 00:11:34;;;;;;;3.27;2.27;;;12.00;98.00;;;;;;5016341;28;20474;-90
2022/05/03 00:14:16;;;;;;;1.80;1.60;;;12.00;98.00;;;;;;5016291;28;20546;-89
2022/05/03 00:16:46;;;;;;;4.70;1.40;;;11.90;98.00;;;;;;5016222;28;20460;-90
2022/05/03 00:19:16;;;;;;;1.70;1.63;;;12.00;98.00;;;;;;5015755;28;20486;-90
2022/05/03 00:21:45;;;;;;;2.30;1.63;;;11.90;98.00;;;;;;5015589;28;20470;-89
2022/05/03 00:24:12;;;;;;;3.80;2.23;;;11.90;98.00;;;;;;5015964;28;20467;-89
2022/05/03 00:26:39;;;;;;;1.70;1.53;;;11.80;98.00;;;;;;5015779;28;20468;-89
2022/05/03 00:29:12;;;;;;;3.97;2.37;;;11.70;98.00;;;;;;5014967;28;20488;-89
2022/05/03 00:31:39;;;;;;;2.57;1.60;;;11.60;98.00;;;;;;5015658;28;20461;-90
2022/05/03 00:34:07;;;;;;;1.90;1.80;;;11.60;98.00;;;;;;5015472;28;20485;-89
2022/05/03 00:36:35;;;;;;;2.53;1.83;;;11.60;98.00;;;;;;5015355;28;20514;-90
2022/05/03 00:39:03;;;;;;;2.50;1.87;;;11.50;98.00;;;;;;5014919;28;20547;-90
2022/05/03 00:41:36;;;;;;;1.70;1.60;;;11.50;98.00;;;;;;5015314;28;20464;-89
2022/05/03 00:46:59;;;;;;;3.43;1.90;;;11.50;98.00;;;;;;5013410;28;20967;-90
2022/05/03 00:49:37;;;;;;;2.30;2.10;;;11.50;98.00;;;;;;5014833;28;20601;-89
2022/05/03 00:52:10;;;;;;;2.30;1.67;;;11.40;98.00;;;;;;5015090;28;20543;-90
2022/05/03 00:54:49;;;;;;;2.13;1.50;;;11.40;98.00;;;;;;5015007;28;20445;-89
2022/05/03 00:57:26;;;;;;;2.97;2.20;;;11.40;98.00;;;;;;5014220;28;20478;-90
2022/05/03 01:00:06;;;;;;;4.10;2.00;;;11.40;98.00;;;;;;5014882;28;20477;-90
2022/05/03 01:02:58;;;;;;;1.97;1.70;;;11.50;98.00;;;;;;5014598;28;20900;-90
2022/05/03 01:05:28;;;;;;;3.37;1.80;;;11.40;98.00;;;;;;5014658;28;20465;-90
2022/05/03 01:08:05;;;;;;;3.20;2.13;;;11.50;98.00;;;;;;5014349;28;20458;-90
2022/05/03 01:10:34;;;;;;;1.50;1.40;;;11.40;98.00;;;;;;5014179;28;20535;-89
2022/05/03 01:13:04;;;;;;;1.57;1.47;;;11.20;98.00;;;;;;5014793;28;20835;-89
2022/05/03 01:15:35;;;;;;;1.50;1.37;;;11.10;98.00;;;;;;5014594;28;20461;-90
2022/05/03 01:18:20;;;;;;;1.70;1.40;;;11.10;98.00;;;;;;5013958;28;20800;-90
2022/05/03 01:20:59;;;;;;;2.50;1.90;;;11.10;98.00;;;;;;5014373;28;20494;-90
2022/05/03 01:23:50;;;;;;;3.53;2.10;;;11.20;98.00;;;;;;5014142;28;20484;-90
2022/05/03 01:26:32;;;;;;;2.17;1.63;;;10.90;98.00;;;;;;5014461;28;20522;-89
2022/05/03 01:29:34;;;;;;;1.23;1.13;;;10.90;98.00;;;;;;5013643;28;20491;-89
2022/05/03 01:32:02;;;;;;;1.67;1.67;;;10.80;98.00;;;;;;5010926;28;20464;-89
2022/05/03 01:34:31;;;;;;;3.83;2.03;;;10.60;98.00;;;;;;5014013;28;20466;-90
2022/05/03 01:37:20;;;;;;;2.93;2.10;;;10.40;98.00;;;;;;5013558;28;20539;-90
2022/05/03 01:40:06;;;;;;;2.37;2.00;;;10.40;98.00;;;;;;5013972;28;20468;-90
2022/05/03 01:42:57;;;;;;;1.43;1.37;;;10.30;98.00;;;;;;5013317;28;20496;-91
2022/05/03 01:45:31;;;;;;;2.27;1.73;;;10.20;98.00;;;;;;5002683;28;20463;-90
2022/05/03 01:48:16;;;;;;;2.80;1.83;;;10.20;98.00;;;;;;5013512;28;20459;-90
2022/05/03 01:50:45;;;;;;;1.40;1.30;;;10.20;98.00;;;;;;5013776;28;20994;-90
2022/05/03 01:53:23;;;;;;;2.23;1.80;;;10.40;98.00;;;;;;5013912;28;20568;-90
2022/05/03 01:56:26;;;;;;;1.80;1.50;;;10.40;98.00;;;;;;5013878;28;20453;-90
2022/05/03 01:59:24;;;;;;;1.57;1.40;;;10.40;98.00;;;;;;5012774;28;20518;-90
2022/05/03 02:01:58;;;;;;;2.20;1.73;;;10.40;98.00;;;;;;5013614;28;20460;-90
2022/05/03 02:04:45;;;;;;;2.07;1.50;;;10.50;98.00;;;;;;5013834;28;20988;-89
2022/05/03 02:07:24;;;;;;;2.83;1.60;;;10.40;98.00;;;;;;5013633;28;20956;-90
2022/05/03 02:10:03;;;;;;;1.20;1.00;;;10.30;98.00;;;;;;5013886;28;20896;-90
2022/05/03 02:12:31;;;;;;;1.50;1.40;;;10.20;98.00;;;;;;5013872;28;20467;-90
2022/05/03 02:15:04;;;;;;;1.63;1.63;;;10.20;98.00;;;;;;5015638;28;20465;-90
2022/05/03 02:17:53;;;;;;;1.53;1.50;;;10.10;98.00;;;;;;5020781;28;21148;-90
2022/05/03 02:20:47;;;;;;;2.37;1.43;;;10.10;98.00;;;;;;5020770;28;20825;-90
2022/05/03 02:23:40;;;;;;;3.60;1.93;;;10.00;98.00;;;;;;5013550;28;20479;-89
2022/05/03 02:26:20;;;;;;;2.03;1.40;;;10.00;98.00;;;;;;5009464;28;20463;-89
2022/05/03 02:28:55;;;;;;;2.90;1.50;;;10.10;98.00;;;;;;5012491;28;20437;-90
2022/05/03 02:31:32;;;;;;;1.80;1.53;;;10.20;98.00;;;;;;5013084;28;20435;-90
2022/05/03 02:34:14;;;;;;;1.47;1.40;;;10.20;98.00;;;;;;5012972;28;20436;-90
2022/05/03 02:36:49;;;;;;;1.60;1.50;;;10.20;98.00;;;;;;5013045;28;20518;-90
2022/05/03 02:39:25;;;;;;;2.30;1.40;;;10.10;98.00;;;;;;5012838;28;20985;-90
2022/05/03 02:41:53;;;;;;;3.80;2.00;;;10.10;98.00;;;;;;5013189;28;20459;-90
2022/05/03 02:44:22;;;;;;;1.30;1.20;;;10.00;98.00;;;;;;5012572;28;20487;-89
2022/05/03 02:46:56;;;;;;;1.80;1.67;;;10.10;98.00;;;;;;5012986;28;20470;-90
2022/05/03 02:49:40;;;;;;;1.80;1.70;;;10.10;98.00;;;;;;5012620;28;20482;-90
2022/05/03 02:52:15;;;;;;;1.77;1.70;;;10.00;98.00;;;;;;5013085;28;20960;-89
2022/05/03 02:54:53;;;;;;;2.50;1.77;;;10.00;98.00;;;;;;5012022;28;20458;-89
2022/05/03 02:57:31;;;;;;;2.27;1.90;;;9.80;98.00;;;;;;5011982;28;20463;-90
2022/05/03 03:03:22;;;;;;;1.90;1.33;;;9.80;98.00;;;;;;4976864;28;20487;-89
2022/05/03 03:06:00;;;;;;;2.40;1.40;;;9.90;98.00;;;;;;5009453;28;20463;-90
2022/05/03 03:08:32;;;;;;;3.47;2.03;;;9.70;98.00;;;;;;5012243;28;20553;-90
2022/05/03 03:11:04;;;;;;;1.87;1.43;;;9.50;98.00;;;;;;5012600;28;20538;-90
2022/05/03 03:13:49;;;;;;;2.00;1.90;;;9.40;98.00;;;;;;5012356;28;20466;-89
2022/05/03 03:16:23;;;;;;;4.60;2.90;;;9.20;98.00;;;;;;5012324;28;20953;-90
2022/05/03 03:18:52;;;;;;;4.10;2.03;;;9.20;98.00;;;;;;5011706;28;20831;-90
2022/05/03 03:21:26;;;;;;;2.63;1.80;;;9.20;98.00;;;;;;5012587;28;20472;-90
2022/05/03 03:23:53;;;;;;;1.60;1.23;;;9.30;98.00;;;;;;5012526;28;20837;-90
2022/05/03 03:26:25;;;;;;;1.37;1.20;;;9.50;98.00;;;;;;5012376;28;20501;-89
2022/05/03 03:28:54;;;;;;;3.07;1.93;;;9.40;98.00;;;;;;5011807;28;21028;-90
2022/05/03 03:31:23;;;;;;;1.60;1.53;;;9.40;98.00;;;;;;5012491;28;20447;-90
2022/05/03 03:33:50;;;;;;;1.93;1.73;;;9.30;98.00;;;;;;5011969;28;20529;-90
2022/05/03 03:36:18;;;;;;;1.67;1.57;;;9.30;98.00;;;;;;5012233;28;20463;-90
2022/05/03 03:38:49;;;;;;;1.63;1.43;;;9.30;98.00;;;;;;5011463;28;20461;-90
2022/05/03 03:41:16;;;;;;;3.10;1.90;;;9.20;98.00;;;;;;5012449;28;20443;-90
2022/05/03 03:43:43;;;;;;;2.80;2.10;;;9.20;98.00;;;;;;5012242;28;20980;-89
2022/05/03 03:46:11;;;;;;;3.20;2.50;;;9.20;98.00;;;;;;5012375;28;20473;-90
2022/05/03 03:48:39;;;;;;;2.37;1.70;;;9.20;98.00;;;;;;5011703;28;20461;-90
2022/05/03 03:51:08;;;;;;;2.00;1.80;;;9.10;98.00;;;;;;5012570;28;20464;-90
2022/05/03 03:53:36;;;;;;;1.40;1.20;;;9.10;98.00;;;;;;5011837;28;20547;-90
2022/05/03 03:56:05;;;;;;;1.37;1.20;;;9.20;98.00;;;;;;5012057;28;20498;-90
2022/05/03 03:58:32;;;;;;;1.43;1.20;;;9.10;98.00;;;;;;5011395;28;20463;-89
2022/05/03 04:01:00;;;;;;;1.50;1.30;;;9.20;98.00;;;;;;5012042;28;20490;-90
2022/05/03 04:03:28;;;;;;;1.30;1.23;;;9.30;98.00;;;;;;5011912;28;20476;-91
2022/05/03 04:05:56;;;;;;;2.17;1.60;;;9.30;98.00;;;;;;5014196;28;20832;-89
2022/05/03 04:08:25;;;;;;;1.73;1.30;;;9.10;98.00;;;;;;5015441;28;20547;-89
2022/05/03 04:10:52;;;;;;;2.03;1.50;;;9.00;98.00;;;;;;5015486;28;20999;-90
2022/05/03 04:13:21;;;;;;;2.07;1.67;;;8.90;98.00;;;;;;5015471;28;20555;-89
2022/05/03 04:15:51;;;;;;;1.20;1.10;;;8.90;98.00;;;;;;5015555;28;20463;-89
2022/05/03 04:18:19;;;;;;;1.80;1.60;;;8.90;98.00;;;;;;5014884;28;20467;-90
2022/05/03 04:20:47;;;;;;;1.80;1.67;;;8.80;98.00;;;;;;5015173;28;20488;-89
2022/05/03 04:23:22;;;;;;;2.30;1.93;;;8.80;98.00;;;;;;5015565;28;20503;-89
2022/05/03 04:25:50;;;;;;;1.50;1.43;;;8.90;98.00;;;;;;5015779;28;20528;-90
2022/05/03 04:28:17;;;;;;;1.97;1.70;;;9.00;98.00;;;;;;5014727;28;20559;-90
2022/05/03 04:30:46;;;;;;;2.10;1.60;;;9.00;98.00;;;;;;5015534;28;20881;-89
2022/05/03 04:33:15;;;;;;;1.47;1.40;;;9.00;98.00;;;;;;5015561;28;20473;-90
2022/05/03 04:35:42;;;;;;;9.93;2.67;;;9.00;98.00;;;;;;5015597;28;20946;-90
2022/05/03 04:38:11;;;;;;;3.87;2.00;;;9.20;98.00;;;;;;5014643;28;20472;-90
2022/05/03 04:40:39;;;;;;;4.00;1.63;;;9.50;98.00;;;;;;5015234;28;20554;-89
2022/05/03 04:43:07;;;;;;;4.57;1.80;;;9.50;98.00;;;;;;5015077;28;20563;-90
2022/05/03 04:45:34;;;;;;;1.83;1.83;;;9.60;98.00;;;;;;5015422;28;20454;-90
2022/05/03 04:48:03;;;;;;;4.07;2.00;;;9.70;98.00;;;;;;5014701;28;20558;-89
2022/05/03 04:50:30;;;;;;;2.80;1.67;;;9.90;98.00;;;;;;5015283;28;20559;-89
2022/05/03 04:52:57;;;;;;;1.57;1.37;;;9.80;98.00;;;;;;5014820;28;20470;-89
2022/05/03 04:55:24;;;;;;;1.63;1.47;;;9.80;98.00;;;;;;5015061;28;20546;-90
2022/05/03 04:57:51;;;;;;;2.03;1.70;;;9.60;98.00;;;;;;5013957;28;20461;-89
2022/05/03 05:00:19;;;;;;;1.40;1.30;;;9.60;98.00;;;;;;5014891;28;20484;-89
2022/05/03 05:02:46;;;;;;;2.17;1.77;;;9.50;98.00;;;;;;5014661;28;20516;-89
2022/05/03 05:05:15;;;;;;;1.40;1.30;;;9.30;98.00;;;;;;5014582;28;21015;-90
2022/05/03 05:07:43;;;;;;;4.03;2.00;;;9.20;98.00;;;;;;5014033;28;20485;-89
2022/05/03 05:12:52;;;;;;;1.50;1.43;;;9.20;98.00;;;;;;5011597;28;20452;-90
2022/05/03 05:15:19;;;;;;;2.37;1.63;;;9.20;98.00;;;;;;5014482;28;20459;-90
2022/05/03 05:17:46;;;;;;;1.97;1.40;;;9.20;98.00;;;;;;5013057;28;20455;-90
2022/05/03 05:20:16;;;;;;;2.07;1.93;;;9.20;98.00;;;;;;5014564;28;20483;-89
2022/05/03 05:22:45;;;;;;;2.13;1.13;;;9.20;98.00;;;;;;5014409;28;20526;-89
2022/05/03 05:25:13;;;;;;;1.60;1.40;;;9.10;98.00;;;;;;5015788;28;20487;-90
2022/05/03 05:27:40;;;;;;;1.90;1.33;;;9.20;98.00;;;;;;5027949;28;20968;-90
2022/05/03 05:32:43;;;;;;;3.03;2.07;;;9.40;98.00;;;;;;5037942;22;20682;-66
2022/05/03 05:35:10;;;;;;;6.20;2.70;;;9.40;98.00;;;;;;5013239;28;20955;-66
2022/05/03 05:37:39;;;;;;;2.37;1.93;;;9.60;98.00;;;;;;5013208;28;20502;-65
2022/05/03 05:40:07;;;;;;;2.50;1.90;;;9.90;98.00;;;;;;5012969;28;20470;-66
2022/05/03 05:42:34;;;;;;;1.90;1.77;;;10.20;98.00;;;;;;5012885;28;20461;-66
2022/05/03 05:45:01;;;;;;;1.60;1.40;;;10.40;98.00;;;;;;5012964;28;20483;-65
2022/05/03 05:47:29;;;;;;;1.77;1.73;;;10.50;98.00;;;;;;5012811;28;20461;-66
2022/05/03 05:49:56;;;;;;;2.43;2.10;;;10.60;98.00;;;;;;5012868;28;20547;-66
2022/05/03 05:55:09;;;;;;;1.83;1.77;;;10.80;98.00;;;;;;5012948;28;20442;-66
2022/05/03 05:57:42;;;;;;;2.23;2.13;;;10.80;98.00;;;;;;5012639;28;20460;-66
2022/05/03 06:00:11;;;;;;;1.70;1.60;;;10.90;98.00;;;;;;5012715;28;20462;-66
2022/05/03 06:02:39;;;;;;;2.17;2.00;;;10.90;98.00;;;;;;5012721;28;20959;-66
2022/05/03 06:05:07;;;;;;;3.03;2.20;;;11.00;98.00;;;;;;5012800;28;20533;-66
2022/05/03 06:07:34;;;;;;;2.33;2.00;;;11.10;98.00;;;;;;5011540;28;20457;-65
2022/05/03 06:10:02;;;;;;;2.17;2.00;;;11.20;98.00;;;;;;5012607;28;20506;-65
2022/05/03 06:12:31;;;;;;;2.73;2.20;;;11.30;98.00;;;;;;5027545;28;20860;-65
2022/05/03 06:14:58;;;;;;;2.80;2.17;;;11.50;98.00;;;;;;5012565;28;20554;-65
2022/05/03 06:17:25;;;;;;;4.17;2.17;;;11.60;98.00;;;;;;5012178;28;20461;-65
2022/05/03 06:19:53;;;;;;;2.13;1.97;;;11.60;98.00;;;;;;5012481;28;20461;-65
2022/05/03 06:22:20;;;;;;;1.53;1.43;;;11.70;98.00;;;;;;5012396;28;20460;-65
2022/05/03 06:24:47;;;;;;;2.30;1.93;;;11.90;98.00;;;;;;5012442;28;20544;-65
2022/05/03 06:27:15;;;;;;;2.60;2.07;;;11.90;98.00;;;;;;5012105;28;20495;-65
2022/05/03 06:29:43;;;;;;;2.50;2.40;;;12.00;98.00;;;;;;5012212;28;20471;-64
2022/05/03 06:32:11;;;;;;;4.13;2.57;;;12.10;98.00;;;;;;5011848;28;20565;-64
2022/05/03 06:34:39;;;;;;;3.53;2.17;;;12.10;98.00;;;;;;5010654;28;20478;-64
2022/05/03 06:37:11;;;;;;;2.80;2.30;;;12.10;98.00;;;;;;5011924;28;20520;-64
2022/05/03 06:39:38;;;;;;;3.03;2.10;;;12.30;98.00;;;;;;5012024;28;20540;-64
2022/05/03 06:42:06;;;;;;;2.43;2.10;;;12.40;98.00;;;;;;5011940;28;20462;-64
2022/05/03 06:44:33;;;;;;;2.87;1.93;;;12.50;98.00;;;;;;5011814;28;20513;-65
2022/05/03 06:47:02;;;;;;;2.17;2.00;;;12.60;98.00;;;;;;5011810;28;20879;-64
2022/05/03 06:49:29;;;;;;;1.67;1.60;;;12.60;98.00;;;;;;5012032;28;20469;-64
2022/05/03 06:51:56;;;;;;;4.30;2.60;;;12.60;98.00;;;;;;5026851;28;20461;-64
2022/05/03 06:54:23;;;;;;;3.83;2.63;;;12.70;98.00;;;;;;5011688;28;20452;-63
2022/05/03 06:56:51;;;;;;;3.40;2.07;;;12.80;98.00;;;;;;5011772;28;20473;-64
2022/05/03 06:59:19;;;;;;;1.77;1.53;;;12.90;98.00;;;;;;5011679;28;20963;-64
2022/05/03 07:01:46;;;;;;;3.40;2.43;;;13.10;98.00;;;;;;5012117;28;20466;-64
2022/05/03 07:04:15;;;;;;;1.80;1.50;;;13.20;98.00;;;;;;5012550;28;20480;-65
2022/05/03 07:06:44;;;;;;;2.03;1.80;;;13.20;98.00;;;;;;5012520;28;20921;-64
2022/05/03 07:09:11;;;;;;;1.70;1.53;;;13.30;98.00;;;;;;5012380;28;20474;-64
2022/05/03 07:11:38;;;;;;;3.10;2.20;;;13.30;98.00;;;;;;5012531;28;20473;-64
2022/05/03 07:14:05;;;;;;;5.53;2.60;;;13.50;98.00;;;;;;5012342;28;20561;-64
2022/05/03 07:16:32;;;;;;;3.03;2.47;;;13.60;98.00;;;;;;5012012;28;20543;-64
2022/05/03 07:24:29;;;;;;;2.50;2.23;;;13.90;98.00;;;;;;5012155;28;20488;-65
2022/05/03 07:26:56;;;;;;;3.57;2.43;;;14.10;98.00;;;;;;5012011;28;20465;-64
2022/05/03 07:29:23;;;;;;;1.87;1.63;;;14.20;98.00;;;;;;5012058;28;20463;-64
2022/05/03 07:31:51;;;;;;;2.83;2.10;;;14.30;98.00;;;;;;5012034;28;20471;-64
2022/05/03 07:34:18;;;;;;;3.07;2.40;;;14.40;98.00;;;;;;5011994;28;20534;-64
2022/05/03 07:36:46;;;;;;;2.47;2.10;;;14.60;98.00;;;;;;5012334;28;21016;-64
2022/05/03 07:39:14;;;;;;;5.10;2.57;;;14.70;98.00;;;;;;5011931;28;20459;-65
2022/05/03 07:41:41;;;;;;;3.10;2.03;;;14.90;98.00;;;;;;5015545;28;20826;-64
2022/05/03 07:44:08;;;;;;;2.03;1.93;;;14.90;98.00;;;;;;5016000;28;20798;-64
2022/05/03 07:46:35;;;;;;;2.77;2.30;;;15.10;98.00;;;;;;5016041;28;20462;-64
2022/05/03 07:49:02;;;;;;;2.30;2.10;;;15.20;98.00;;;;;;5015990;28;20467;-64
2022/05/03 07:51:29;;;;;;;3.90;2.03;;;15.40;98.00;;;;;;5012474;28;20472;-64
2022/05/03 07:53:57;;;;;;;4.53;2.07;;;15.60;98.00;;;;;;5013141;28;21000;-64
2022/05/03 07:56:25;;;;;;;2.43;2.20;;;15.70;98.00;;;;;;5013290;28;20449;-64
2022/05/03 07:58:52;;;;;;;2.13;1.83;;;15.80;98.00;;;;;;5013444;28;20457;-64
2022/05/03 08:01:19;;;;;;;2.23;2.07;;;16.00;98.00;;;;;;5013223;28;21140;-64
2022/05/03 08:03:46;;;;;;;2.40;1.90;;;16.20;98.00;;;;;;5013344;28;20464;-64
2022/05/03 08:06:13;;;;;;;2.80;2.10;;;16.50;98.00;;;;;;5013060;28;20493;-64
2022/05/03 08:08:40;;;;;;;3.33;2.40;;;16.60;98.00;;;;;;5013184;28;20934;-64
2022/05/03 08:11:08;;;;;;;2.40;2.10;;;16.60;98.00;;;;;;5012684;28;20462;-64
2022/05/03 08:13:35;;;;;;;4.00;2.13;;;16.70;98.00;;;;;;5012543;28;20461;-64
2022/05/03 08:16:03;;;;;;;2.70;1.83;;;16.90;98.00;;;;;;5012677;28;20481;-65
2022/05/03 08:18:30;;;;;;;3.27;2.30;;;17.20;98.00;;;;;;5012358;28;20820;-64
2022/05/03 08:20:58;;;;;;;5.47;3.07;;;17.50;98.00;;;;;;5012514;28;20455;-64
2022/05/03 08:23:25;;;;;;;2.83;2.30;;;17.70;98.00;;;;;;5012640;28;20455;-64
2022/05/03 08:25:53;;;;;;;3.13;2.67;;;17.90;98.00;;;;;;5012400;28;20494;-64
2022/05/03 08:28:21;;;;;;;3.93;2.50;;;18.00;98.00;;;;;;5012449;28;20485;-64
2022/05/03 08:30:48;;;;;;;3.97;2.30;;;18.00;98.00;;;;;;5012389;28;20460;-64
2022/05/03 08:33:16;;;;;;;2.27;2.00;;;18.00;98.00;;;;;;5012327;28;20452;-64
2022/05/03 08:35:43;;;;;;;4.90;2.40;;;17.90;98.00;;;;;;5012197;28;20463;-64
2022/05/03 08:43:41;;;;;;;2.40;2.20;;;18.10;98.00;;;;;;5012499;28;20518;-64
2022/05/03 08:46:09;;;;;;;3.10;2.10;;;18.20;98.00;;;;;;5012002;28;20741;-64
2022/05/03 08:48:40;;;;;;;5.17;2.83;;;18.20;98.00;;;;;;5011949;28;20464;-64
2022/05/03 08:51:11;;;;;;;2.33;2.20;;;18.20;98.00;;;;;;5008332;28;20460;-66
2022/05/03 08:53:40;;;;;;;2.07;1.97;;;18.30;98.00;;;;;;5011862;28;20455;-64
2022/05/03 08:56:07;;;;;;;3.63;2.63;;;18.40;98.00;;;;;;5027390;28;20463;-65
2022/05/03 08:58:35;;;;;;;2.50;1.87;;;18.50;98.00;;;;;;5027193;28;20459;-66
2022/05/03 09:01:04;;;;;;;8.60;2.13;;;18.50;98.00;;;;;;5012239;28;20451;-64
2022/05/03 09:03:33;;;;;;;4.30;2.73;;;18.70;98.00;;;;;;5027040;28;20478;-64
2022/05/03 09:06:03;;;;;;;6.20;2.43;;;18.80;98.00;;;;;;5012398;28;20527;-63
2022/05/03 09:08:32;;;;;;;3.97;2.10;;;18.90;97.20;;;;;;5011735;28;20467;-64
2022/05/03 09:11:00;;;;;;;2.60;1.80;;;18.90;98.00;;;;;;5011975;28;20467;-64
2022/05/03 09:13:29;;;;;;;3.40;2.20;;;19.00;98.00;;;;;;5011405;28;20550;-65
2022/05/03 09:16:09;;;;;;;2.40;2.03;;;18.90;97.40;;;;;;5026957;28;20459;-65
2022/05/03 09:18:38;;;;;;;2.90;2.00;;;19.00;96.30;;;;;;5004642;28;20945;-63
2022/05/03 09:24:05;;;;;;;2.00;1.47;;;19.70;97.80;;;;;;5011230;28;20590;-63
2022/05/03 09:26:34;;;;;;;1.83;1.80;;;20.00;93.40;;;;;;5011539;28;20496;-63
2022/05/03 09:29:02;;;;;;;2.37;2.00;;;20.10;93.00;;;;;;5011178;28;20882;-63
2022/05/03 09:31:32;;;;;;;3.40;1.97;;;20.30;95.30;;;;;;5011266;28;20966;-63
2022/05/03 09:34:04;;;;;;;2.73;1.70;;;20.50;92.30;;;;;;5009785;28;20525;-63
2022/05/03 09:36:43;;;;;;;3.27;2.13;;;20.60;91.00;;;;;;5011376;28;20471;-63
2022/05/03 09:39:22;;;;;;;3.10;1.90;;;20.80;92.00;;;;;;5010351;28;20470;-63
2022/05/03 09:42:08;;;;;;;3.57;2.17;;;20.70;89.60;;;;;;5011352;28;20490;-63
2022/05/03 09:44:37;;;;;;;2.47;2.00;;;20.80;92.00;;;;;;5009086;28;20842;-63
2022/05/03 09:47:07;;;;;;;2.27;1.90;;;20.90;91.10;;;;;;5010269;28;20467;-63
2022/05/03 09:49:43;;;;;;;3.20;2.00;;;21.00;88.60;;;;;;5009349;28;21303;-63
2022/05/03 09:52:27;;;;;;;2.43;1.97;;;21.10;89.30;;;;;;5009076;28;20474;-63
2022/05/03 09:54:55;;;;;;;1.90;1.70;;;21.20;87.90;;;;;;5011028;28;20801;-63
2022/05/03 09:57:24;;;;;;;2.77;1.83;;;21.20;87.40;;;;;;5010602;28;20478;-63
2022/05/03 09:59:52;;;;;;;3.10;2.20;;;21.30;88.00;;;;;;5010916;28;20471;-64
2022/05/03 10:02:20;;;;;;;2.57;1.87;;;21.30;89.40;;;;;;5010722;28;20468;-63
2022/05/03 10:04:50;;;;;;;2.17;1.90;;;21.50;91.00;;;;;;5010130;28;20490;-63
2022/05/03 10:07:18;;;;;;;1.90;1.70;;;21.80;88.80;;;;;;5010039;28;20462;-64
2022/05/03 10:09:47;;;;;;;3.33;2.50;;;22.00;86.40;;;;;;5010391;28;20560;-64
2022/05/03 10:12:15;;;;;;;2.27;1.90;;;22.10;86.20;;;;;;5010099;28;20549;-63
2022/05/03 10:14:44;;;;;;;2.60;1.90;;;22.20;87.40;;;;;;5010348;28;20455;-64
2022/05/03 10:22:53;;;;;;;2.27;1.80;;;22.70;83.50;;;;;;5009853;28;20455;-64
2022/05/03 10:25:29;;;;;;;2.07;1.93;;;22.80;83.90;;;;;;5009409;28;20537;-65
2022/05/03 10:27:58;;;;;;;2.63;2.20;;;23.00;83.90;;;;;;5009810;28;20471;-62
2022/05/03 10:30:28;;;;;;;2.70;1.77;;;23.10;84.60;;;;;;5010328;28;20546;-63
2022/05/03 10:33:35;;;;;;;3.10;2.10;;;23.20;85.10;;;;;;5010038;28;20464;-63
2022/05/03 10:36:27;;;;;;;2.87;2.03;;;23.40;82.00;;;;;;5009761;28;20521;-63
2022/05/03 10:39:05;;;;;;;3.77;2.53;;;23.50;84.20;;;;;;5002937;28;20562;-63
2022/05/03 10:41:32;;;;;;;2.73;2.00;;;23.60;82.60;;;;;;5009840;28;20478;-63
2022/05/03 10:44:43;;;;;;;3.00;2.40;;;23.60;81.40;;;;;;5009932;28;20455;-62
2022/05/03 10:47:12;;;;;;;3.07;2.10;;;23.40;81.10;;;;;;5010029;28;20491;-63
2022/05/03 10:50:15;;;;;;;2.37;2.00;;;23.20;84.00;;;;;;5007548;28;20545;-62
2022/05/03 10:52:46;;;;;;;2.33;2.00;;;23.00;82.50;;;;;;5005968;28;20454;-62
2022/05/03 10:55:14;;;;;;;1.80;1.60;;;22.70;81.60;;;;;;5009806;28;20474;-63
2022/05/03 10:58:19;;;;;;;2.53;2.07;;;22.90;84.40;;;;;;5009741;28;20925;-62
2022/05/03 11:01:02;;;;;;;2.53;1.90;;;23.40;80.00;;;;;;4993352;28;21029;-63
2022/05/03 11:03:29;;;;;;;3.53;2.00;;;23.80;81.90;;;;;;5001712;28;20487;-63
2022/05/03 11:06:47;;;;;;;3.83;2.57;;;24.20;79.10;;;;;;5009882;28;20487;-63
2022/05/03 11:09:26;;;;;;;3.27;2.40;;;24.40;77.90;;;;;;4968244;28;20575;-63
2022/05/03 11:12:06;;;;;;;4.40;2.87;;;24.00;78.60;;;;;;5003672;28;20467;-62
2022/05/03 11:14:56;;;;;;;22.07;2.27;;;23.60;79.10;;;;;;5008786;28;20455;-63
2022/05/03 11:17:23;;;;;;;3.40;2.33;;;23.30;80.60;;;;;;5009318;28;20468;-63
2022/05/03 11:19:56;;;;;;;3.60;2.27;;;23.10;81.10;;;;;;5009554;28;20452;-63
2022/05/03 11:22:25;;;;;;;2.83;2.20;;;23.00;83.00;;;;;;5023942;28;20464;-62
2022/05/03 11:24:55;;;;;;;3.77;2.47;;;23.00;82.50;;;;;;5009382;28;20464;-62
2022/05/03 11:27:23;;;;;;;3.80;2.53;;;23.40;80.60;;;;;;5009419;28;21004;-62
2022/05/03 11:29:55;;;;;;;2.53;1.80;;;23.60;80.40;;;;;;5009365;28;20478;-62
2022/05/03 11:32:33;;;;;;;2.53;1.83;;;23.40;81.60;;;;;;5009278;28;20456;-63
2022/05/03 11:35:02;;;;;;;3.47;2.37;;;23.20;81.10;;;;;;5009728;28;20464;-63
2022/05/03 11:37:29;;;;;;;3.50;2.50;;;23.10;80.20;;;;;;5009119;28;20463;-62
2022/05/03 11:40:04;;;;;;;4.37;2.03;;;23.10;82.60;;;;;;5009376;28;20464;-62
2022/05/03 11:42:37;;;;;;;2.53;2.00;;;23.10;82.10;;;;;;5009469;28;20463;-62
2022/05/03 11:45:10;;;;;;;3.93;2.30;;;23.50;82.50;;;;;;5009059;28;20562;-62
2022/05/03 11:47:39;;;;;;;4.60;2.80;;;23.80;79.80;;;;;;5009147;28;20455;-62
2022/05/03 11:50:09;;;;;;;3.57;2.30;;;24.00;80.00;;;;;;5007040;28;20459;-62
2022/05/03 11:58:10;;;;;;;3.87;2.50;;;25.10;79.40;;;;;;5008703;28;20455;-62
2022/05/03 12:00:47;;;;;;;2.47;1.90;;;25.40;77.60;;;;;;5008682;28;20454;-62
2022/05/03 12:03:15;;;;;;;3.83;2.30;;;24.70;76.70;;;;;;5008703;28;20451;-62
2022/05/03 12:05:57;;;;;;;2.73;2.27;;;24.00;77.90;;;;;;5008567;28;20498;-62
2022/05/03 12:08:25;;;;;;;2.03;1.70;;;24.10;80.60;;;;;;5008450;28;20486;-62
2022/05/03 12:10:56;;;;;;;3.23;1.93;;;23.80;77.90;;;;;;5008821;28;20460;-62
2022/05/03 12:13:31;;;;;;;2.93;2.10;;;23.40;78.10;;;;;;5008662;28;20466;-62
2022/05/03 12:16:15;;;;;;;2.87;2.20;;;22.90;79.90;;;;;;5009107;28;20949;-62
2022/05/03 12:18:45;;;;;;;3.90;2.30;;;22.40;82.30;;;;;;5023607;28;21027;-63
2022/05/03 12:21:14;;;;;;;6.23;2.40;;;22.10;83.60;;;;;;5008647;28;20455;-63
2022/05/03 12:23:44;;;;;;;2.70;2.20;;;21.70;84.60;;;;;;5008921;28;20517;-60
2022/05/03 12:26:18;;;;;;;2.03;1.93;;;21.40;86.70;;;;;;5009506;28;20533;-63
2022/05/03 12:28:47;;;;;;;2.37;1.87;;;21.10;87.30;;;;;;5004306;28;20467;-62
2022/05/03 12:31:16;;;;;;;2.77;2.10;;;20.90;88.10;;;;;;5011453;28;20482;-61
2022/05/03 12:33:44;;;;;;;3.90;2.33;;;20.70;87.90;;;;;;5011757;28;20965;-61
2022/05/03 12:36:12;;;;;;;3.53;1.97;;;20.50;88.70;;;;;;5012507;28;20483;-62
2022/05/03 12:38:50;;;;;;;3.27;2.10;;;20.30;89.20;;;;;;5012316;28;20456;-62
2022/05/03 12:41:26;;;;;;;2.60;1.80;;;20.10;90.00;;;;;;5010954;28;20525;-62
2022/05/03 12:44:01;;;;;;;2.37;1.60;;;19.90;90.70;;;;;;5012031;28;20451;-61
2022/05/03 12:46:29;;;;;;;2.40;1.57;;;19.70;91.70;;;;;;5012299;28;20589;-62
2022/05/03 12:48:57;;;;;;;1.67;1.57;;;19.50;91.30;;;;;;5012191;28;20463;-62
2022/05/03 12:51:26;;;;;;;1.90;1.70;;;19.50;91.80;;;;;;5009851;28;20466;-62
2022/05/03 12:53:53;;;;;;;2.33;1.80;;;19.50;92.90;;;;;;5010833;28;20518;-62
2022/05/03 12:59:06;;;;;;;1.70;1.40;;;19.40;96.20;;;;;;5012244;28;21023;-62
2022/05/03 13:01:35;;;;;;;1.87;1.57;;;19.30;98.00;;;;;;5011942;28;20568;-62
2022/05/03 13:04:02;;;;;;;2.40;1.53;;;19.20;98.00;;;;;;5011791;28;20471;-62
2022/05/03 13:06:30;;;;;;;2.20;1.97;;;19.00;98.00;;;;;;5011606;28;21029;-62
2022/05/03 13:08:57;;;;;;;1.57;1.50;;;18.80;98.00;;;;;;5011598;28;20479;-63
2022/05/03 13:11:25;;;;;;;2.63;1.80;;;18.60;98.00;;;;;;5011791;28;20463;-63
2022/05/03 13:13:52;;;;;;;4.70;2.13;;;18.30;98.00;;;;;;5012021;28;20869;-63
2022/05/03 13:16:20;;;;;;;2.83;1.50;;;18.10;98.00;;;;;;5011856;28;20456;-63
2022/05/03 13:18:47;;;;;;;1.33;1.23;;;17.90;98.00;;;;;;5011986;28;20463;-63
2022/05/03 13:21:14;;;;;;;2.10;1.50;;;17.80;98.00;;;;;;5011295;28;20455;-63
2022/05/03 13:23:43;;;;;;;2.70;2.00;;;17.70;98.00;;;;;;5028154;28;20954;-63
2022/05/03 13:26:10;;;;;;;1.50;1.47;;;17.60;98.00;;;;;;5013919;28;21031;-62
2022/05/03 13:28:37;;;;;;;1.70;1.40;;;17.60;98.00;;;;;;5013788;28;20941;-63
2022/05/03 13:31:05;;;;;;;2.40;1.57;;;17.60;98.00;;;;;;5013545;28;20517;-63
2022/05/03 13:33:35;;;;;;;3.77;2.13;;;17.70;98.00;;;;;;5013788;28;20447;-63
2022/05/03 13:41:31;;;;;;;3.10;2.03;;;18.20;98.00;;;;;;5026746;28;21094;-63
2022/05/03 13:43:59;;;;;;;2.30;2.20;;;18.40;98.00;;;;;;5013362;28;20468;-63
2022/05/03 13:46:26;;;;;;;2.33;1.93;;;18.70;98.00;;;;;;5013530;28;20578;-63
2022/05/03 13:48:54;;;;;;;2.17;1.70;;;19.20;98.00;;;;;;5013559;28;20455;-62
2022/05/03 13:51:23;;;;;;;3.80;1.80;;;19.40;98.00;;;;;;5013740;28;20455;-62
2022/05/03 13:53:50;;;;;;;1.77;1.77;;;19.90;98.00;;;;;;5013418;28;20533;-62
2022/05/03 13:56:18;;;;;;;2.00;1.60;;;20.50;98.00;;;;;;5013292;28;20455;-62
2022/05/03 13:58:45;;;;;;;3.13;2.23;;;20.80;98.00;;;;;;5013442;28;20456;-62